createdAt,value
2022-09-16T00:01:49.245Z,62.03
2022-09-16T00:06:50.581Z,62.84
2022-09-16T00:11:51.909Z,62.12
2022-09-16T00:16:53.229Z,61.23
2022-09-16T00:21:54.493Z,62.20
2022-09-16T00:26:55.793Z,63.33
2022-09-16T00:32:00.034Z,61.04
2022-09-16T00:37:03.254Z,60.82
2022-09-16T00:42:05.438Z,61.57
2022-09-16T00:47:06.860Z,61.90
2022-09-16T00:52:08.377Z,62.78
2022-09-16T00:57:12.889Z,62.21
2022-09-16T01:02:17.815Z,62.02
2022-09-16T01:07:47.295Z,62.36
2022-09-16T01:12:59.795Z,63.16
2022-09-16T01:18:19.323Z,62.44
2022-09-16T01:23:41.414Z,62.79
2022-09-16T01:28:54.533Z,60.64
2022-09-16T01:34:00.791Z,61.65
2022-09-16T01:39:16.031Z,61.92
2022-09-16T01:44:24.706Z,61.49
2022-09-16T01:49:25.960Z,61.44
2022-09-16T01:54:40.533Z,60.10
2022-09-16T01:59:54.457Z,62.34
2022-09-16T02:04:57.727Z,61.41
2022-09-16T02:10:08.585Z,61.17
2022-09-16T02:15:18.699Z,61.23
2022-09-16T02:20:25.780Z,60.11
2022-09-16T02:25:29.071Z,61.01
2022-09-16T02:30:31.564Z,60.36
2022-09-16T02:35:36.863Z,60.43
2022-09-16T02:40:46.170Z,60.60
2022-09-16T02:45:56.815Z,61.52
2022-09-16T02:51:15.203Z,61.35
2022-09-16T02:56:36.921Z,62.62
2022-09-16T03:01:42.010Z,63.30
2022-09-16T03:06:44.134Z,63.07
2022-09-16T03:11:58.214Z,62.01
2022-09-16T03:17:07.153Z,64.41
2022-09-16T03:22:15.638Z,63.63
2022-09-16T03:27:26.409Z,63.83
2022-09-16T03:32:34.017Z,63.31
2022-09-16T03:37:39.436Z,62.90
2022-09-16T03:42:43.258Z,62.61
2022-09-16T03:47:46.402Z,63.02
2022-09-16T03:52:47.897Z,63.85
2022-09-16T03:57:49.128Z,62.82
2022-09-16T04:02:50.484Z,62.66
2022-09-16T04:07:51.885Z,63.55
2022-09-16T04:12:57.490Z,63.05
2022-09-16T04:18:00.182Z,64.81
2022-09-16T04:23:01.510Z,64.54
2022-09-16T04:28:03.247Z,64.38
2022-09-16T04:33:04.645Z,65.81
2022-09-16T04:38:05.949Z,65.19
2022-09-16T04:43:07.210Z,65.75
2022-09-16T04:48:08.441Z,65.13
2022-09-16T04:53:09.682Z,64.46
2022-09-16T04:58:11.219Z,65.53
2022-09-16T05:03:12.549Z,66.75
2022-09-16T05:08:13.863Z,66.69
2022-09-16T05:13:15.199Z,66.74
2022-09-16T05:18:16.575Z,67.40
2022-09-16T05:23:17.835Z,66.93
2022-09-16T05:28:19.308Z,66.77
2022-09-16T05:33:20.618Z,66.87
2022-09-16T05:38:21.852Z,67.01
2022-09-16T05:43:23.096Z,66.75
2022-09-16T05:48:25.640Z,66.64
2022-09-16T05:53:29.164Z,65.99
2022-09-16T05:58:32.490Z,66.29
2022-09-16T06:03:35.393Z,66.59
2022-09-16T06:08:37.075Z,66.02
2022-09-16T06:13:39.005Z,68.24
2022-09-16T06:18:40.741Z,66.87
2022-09-16T06:23:42.085Z,65.64
2022-09-16T06:28:44.155Z,65.99
2022-09-16T06:33:45.826Z,64.84
2022-09-16T06:38:48.324Z,65.58
2022-09-16T06:43:52.976Z,65.39
2022-09-16T06:48:58.691Z,65.34
2022-09-16T06:54:02.898Z,65.29
2022-09-16T06:59:05.404Z,65.34
2022-09-16T07:04:13.523Z,65.79
2022-09-16T07:09:15.116Z,64.85
2022-09-16T07:14:16.389Z,64.81
2022-09-16T07:19:17.789Z,63.88
2022-09-16T07:24:19.316Z,62.44
2022-09-16T07:29:20.800Z,63.23
2022-09-16T07:34:22.252Z,61.66
2022-09-16T07:39:25.605Z,61.14
2022-09-16T07:44:26.993Z,60.29
2022-09-16T07:49:28.242Z,59.83
2022-09-16T07:54:29.529Z,56.84
2022-09-16T07:59:30.799Z,56.57
2022-09-16T08:04:32.048Z,53.71
2022-09-16T08:09:40.970Z,56.21
2022-09-16T08:14:44.194Z,56.11
2022-09-16T08:19:45.481Z,56.58
2022-09-16T08:24:46.789Z,54.90
2022-09-16T08:29:48.050Z,55.28
2022-09-16T08:34:49.330Z,51.97
2022-09-16T08:39:51.392Z,52.00
2022-09-16T08:45:06.657Z,49.93
2022-09-16T08:50:30.101Z,49.57
2022-09-16T08:55:39.976Z,51.66
2022-09-16T09:00:44.207Z,52.77
2022-09-16T09:05:57.582Z,49.72
2022-09-16T09:11:15.079Z,49.10
2022-09-16T09:16:40.306Z,47.15
2022-09-16T09:21:51.901Z,45.24
2022-09-16T09:27:22.617Z,45.03
2022-09-16T09:32:49.126Z,44.78
2022-09-16T09:38:18.712Z,41.98
2022-09-16T09:43:35.378Z,44.13
2022-09-16T09:48:48.542Z,42.81
2022-09-16T09:53:55.042Z,42.92
2022-09-16T09:59:08.698Z,41.82
2022-09-16T10:04:14.829Z,43.42
2022-09-16T10:09:17.455Z,40.29
2022-09-16T10:14:25.605Z,43.03
2022-09-16T10:19:28.348Z,47.08
2022-09-16T10:24:33.359Z,44.91
2022-09-16T10:29:34.802Z,45.91
2022-09-16T10:34:42.158Z,46.70
2022-09-16T10:39:49.990Z,47.12
2022-09-16T10:44:53.811Z,48.00
2022-09-16T10:49:58.878Z,48.12
2022-09-16T10:55:19.419Z,48.40
2022-09-16T11:00:28.055Z,48.03
2022-09-16T11:05:46.665Z,47.33
2022-09-16T11:11:02.004Z,43.41
2022-09-16T11:16:50.139Z,32.47
2022-09-16T11:22:07.685Z,35.09
2022-09-16T11:27:22.437Z,36.42
2022-09-16T11:32:51.160Z,39.49
2022-09-16T11:38:10.750Z,40.61
2022-09-16T11:43:40.481Z,41.17
2022-09-16T11:49:11.354Z,43.86
2022-09-16T11:54:32.973Z,47.02
2022-09-16T12:00:02.060Z,56.29
2022-09-16T12:05:22.751Z,59.54
2022-09-16T12:10:28.958Z,59.41
2022-09-16T12:15:46.068Z,61.08
2022-09-16T12:20:53.311Z,62.84
2022-09-16T12:26:18.210Z,60.92
2022-09-16T12:31:47.694Z,63.80
2022-09-16T12:36:58.080Z,60.08
2022-09-16T12:42:21.050Z,57.62
2022-09-16T12:47:43.455Z,49.31
2022-09-16T12:53:03.283Z,33.70
2022-09-16T12:58:21.110Z,30.37
2022-09-16T13:03:28.607Z,25.62
2022-09-16T13:08:33.734Z,24.22
2022-09-16T13:13:42.921Z,23.53
2022-09-16T13:18:50.389Z,22.08
2022-09-16T13:24:00.701Z,26.77
2022-09-16T13:29:01.984Z,33.83
2022-09-16T13:34:16.135Z,34.17
2022-09-16T13:39:38.160Z,36.24
2022-09-16T13:44:39.679Z,39.35
2022-09-16T13:49:43.416Z,38.22
2022-09-16T13:55:09.880Z,40.01
2022-09-16T14:00:12.727Z,42.57
2022-09-16T14:05:32.869Z,42.26
2022-09-16T14:10:57.274Z,45.32
2022-09-16T14:15:59.567Z,47.65
2022-09-16T14:21:06.428Z,47.51
2022-09-16T14:26:34.809Z,47.93
2022-09-16T14:31:37.162Z,46.85
2022-09-16T14:36:40.551Z,46.86
2022-09-16T14:41:55.789Z,46.27
2022-09-16T14:47:47.029Z,44.31
2022-09-16T14:52:55.722Z,44.94
2022-09-16T14:57:58.369Z,47.31
2022-09-16T15:03:12.045Z,49.03
2022-09-16T15:08:25.200Z,48.63
2022-09-16T15:13:29.977Z,50.29
2022-09-16T15:18:34.364Z,46.08
2022-09-16T15:23:39.670Z,46.44
2022-09-16T15:28:53.242Z,47.97
2022-09-16T15:33:55.975Z,49.89
2022-09-16T15:38:58.108Z,52.55
2022-09-16T15:44:00.746Z,53.64
2022-09-16T15:49:02.239Z,52.20
2022-09-16T15:54:15.315Z,52.25
2022-09-16T15:59:33.921Z,54.89
2022-09-16T16:04:35.230Z,56.40
2022-09-16T16:09:42.285Z,58.32
2022-09-16T16:14:44.223Z,58.20
2022-09-16T16:19:50.377Z,57.93
2022-09-16T16:24:51.639Z,55.17
2022-09-16T16:29:52.920Z,56.18
2022-09-16T16:34:57.971Z,57.12
2022-09-16T16:39:59.355Z,56.45
2022-09-16T16:45:00.658Z,58.37
2022-09-16T16:50:02.044Z,58.46
2022-09-16T16:55:03.706Z,58.02
2022-09-16T17:00:06.416Z,58.74
2022-09-16T17:05:08.194Z,58.96
2022-09-16T17:10:10.565Z,59.67
2022-09-16T17:15:11.861Z,58.94
2022-09-16T17:20:13.294Z,58.69
2022-09-16T17:25:15.089Z,57.67
2022-09-16T17:30:16.902Z,57.68
2022-09-16T17:35:18.181Z,57.41
2022-09-16T17:40:28.418Z,55.59
2022-09-16T17:45:37.907Z,55.87
2022-09-16T17:50:41.808Z,57.25
2022-09-16T17:55:43.071Z,57.44
2022-09-16T18:00:55.169Z,56.70
2022-09-16T18:06:06.314Z,59.34
2022-09-16T18:11:09.225Z,59.19
2022-09-16T18:16:16.245Z,60.68
2022-09-16T18:21:19.641Z,60.00
2022-09-16T18:26:21.152Z,59.28
2022-09-16T18:31:24.033Z,57.93
2022-09-16T18:36:29.815Z,58.47
2022-09-16T18:41:35.300Z,59.23
2022-09-16T18:46:38.210Z,60.70
2022-09-16T18:51:41.873Z,58.50
2022-09-16T18:56:43.137Z,59.40
2022-09-16T19:01:48.501Z,59.24
2022-09-16T19:06:53.584Z,59.35
2022-09-16T19:11:54.954Z,60.06
2022-09-16T19:16:56.334Z,60.11
2022-09-16T19:21:57.699Z,60.11
2022-09-16T19:26:58.971Z,60.83
2022-09-16T19:32:00.681Z,61.60
2022-09-16T19:37:02.114Z,61.17
2022-09-16T19:42:03.648Z,60.94
2022-09-16T19:47:05.060Z,62.31
2022-09-16T19:52:06.350Z,63.00
2022-09-16T19:57:07.632Z,63.39
2022-09-16T20:02:11.038Z,62.67
2022-09-16T20:07:16.824Z,63.43
2022-09-16T20:12:18.741Z,63.16
2022-09-16T20:17:19.995Z,63.94
2022-09-16T20:22:21.250Z,63.67
2022-09-16T20:27:22.893Z,63.70
2022-09-16T20:32:24.162Z,62.80
2022-09-16T20:37:25.425Z,63.17
2022-09-16T20:42:26.715Z,63.27
2022-09-16T20:47:30.262Z,63.09
2022-09-16T20:52:33.137Z,62.65
2022-09-16T20:57:34.448Z,62.58
2022-09-16T21:02:35.812Z,62.63
2022-09-16T21:07:37.214Z,62.97
2022-09-16T21:12:38.565Z,63.21
2022-09-16T21:17:39.896Z,62.63
2022-09-16T21:22:44.619Z,62.15
2022-09-16T21:27:45.932Z,62.34
2022-09-16T21:32:47.273Z,63.13
2022-09-16T21:37:48.626Z,63.93
2022-09-16T21:42:50.134Z,62.98
2022-09-16T21:47:52.992Z,63.57
2022-09-16T21:52:54.404Z,63.44
2022-09-16T21:57:55.832Z,63.92
2022-09-16T22:02:57.192Z,64.26
2022-09-16T22:08:02.761Z,64.25
2022-09-16T22:13:04.386Z,63.81
2022-09-16T22:18:05.659Z,64.18
2022-09-16T22:23:06.941Z,64.85
2022-09-16T22:28:08.219Z,64.48
2022-09-16T22:33:09.515Z,65.17
2022-09-16T22:38:10.774Z,64.92
2022-09-16T22:43:12.047Z,65.04
2022-09-16T22:48:13.454Z,65.17
2022-09-16T22:53:14.697Z,65.13
2022-09-16T22:58:15.965Z,64.80
2022-09-16T23:03:18.678Z,65.37
2022-09-16T23:08:19.973Z,65.21
2022-09-16T23:13:21.829Z,65.42
2022-09-16T23:18:23.399Z,66.03
2022-09-16T23:23:24.838Z,65.86
2022-09-16T23:28:26.206Z,66.68
2022-09-16T23:33:28.725Z,66.42
2022-09-16T23:38:30.368Z,66.36
2022-09-16T23:43:31.985Z,67.02
2022-09-16T23:48:33.857Z,66.47
2022-09-16T23:53:36.449Z,66.97
2022-09-16T23:58:38.322Z,67.06
